Time;durP1;ratioP1;P1;durP2;ratioP2;P2;SDS_P1;SDS_P2;PMS_P1;PMS_P2;Temp;Humidity;BMP_temperature;BMP_pressure;BME280_temperature;BME280_humidity;BME280_pressure;Samples;Min_cycle;Max_cycle;Signal;HPM_P1;HPM_P2
2021/04/05 00:01:20;;;;;;;3.17;1.88;;;10.90;72.60;;;;;;5042638;28;20029;-57
2021/04/05 00:03:46;;;;;;;3.25;1.80;;;10.80;72.80;;;;;;5043744;28;20495;-56
2021/04/05 00:06:12;;;;;;;2.83;1.40;;;10.80;70.50;;;;;;5043131;28;20017;-57
2021/04/05 00:08:37;;;;;;;2.67;1.35;;;10.90;69.80;;;;;;5043897;28;20052;-57
2021/04/05 00:11:04;;;;;;;1.52;1.00;;;10.90;69.10;;;;;;5047628;28;20131;-57
2021/04/05 00:13:36;;;;;;;2.13;1.38;;;10.90;71.10;;;;;;5047152;28;20028;-56
2021/04/05 00:16:03;;;;;;;2.45;1.30;;;10.90;73.30;;;;;;5047378;28;20059;-57
2021/04/05 00:18:28;;;;;;;3.25;1.50;;;10.90;75.40;;;;;;5047101;28;20124;-57
2021/04/05 00:20:57;;;;;;;2.17;1.20;;;10.90;75.70;;;;;;5046931;28;20626;-56
2021/04/05 00:23:23;;;;;;;2.97;1.25;;;11.10;73.20;;;;;;5047352;28;20495;-57
2021/04/05 00:25:50;;;;;;;2.28;1.40;;;11.10;68.80;;;;;;5046751;28;20021;-57
2021/04/05 00:28:16;;;;;;;1.85;1.00;;;11.20;67.90;;;;;;5047244;28;20025;-56
2021/04/05 00:30:42;;;;;;;2.33;1.08;;;11.10;67.40;;;;;;5046948;28;20017;-57
2021/04/05 00:33:10;;;;;;;1.25;0.90;;;11.20;66.70;;;;;;5047318;28;20116;-57
2021/04/05 00:35:37;;;;;;;1.80;0.90;;;11.20;66.70;;;;;;5047151;28;20036;-56
2021/04/05 00:38:09;;;;;;;1.92;1.23;;;11.20;66.20;;;;;;5047566;28;20037;-57
2021/04/05 00:41:06;;;;;;;2.88;1.25;;;11.20;66.30;;;;;;5047231;28;20538;-56
2021/04/05 00:43:34;;;;;;;3.42;1.83;;;11.00;66.50;;;;;;5045606;28;20487;-57
2021/04/05 00:46:00;;;;;;;4.43;1.70;;;10.90;67.00;;;;;;5047468;28;20027;-57
2021/04/05 00:48:26;;;;;;;4.78;1.92;;;11.00;66.70;;;;;;5056618;28;20115;-57
2021/04/05 00:50:54;;;;;;;3.67;1.77;;;11.10;66.50;;;;;;5066709;28;20092;-57
2021/04/05 00:53:28;;;;;;;3.08;1.80;;;11.00;66.10;;;;;;5066645;28;20027;-56
2021/04/05 00:55:54;;;;;;;2.72;1.63;;;11.10;66.30;;;;;;5066813;28;20605;-56
2021/04/05 00:58:19;;;;;;;4.72;2.22;;;11.00;66.30;;;;;;5066080;28;20028;-57
2021/04/05 01:01:01;;;;;;;3.72;1.63;;;11.00;66.70;;;;;;5065748;28;20025;-56
2021/04/05 01:03:28;;;;;;;4.53;1.52;;;11.20;66.10;;;;;;5066040;28;20039;-56
2021/04/05 01:06:03;;;;;;;4.22;1.45;;;11.20;66.00;;;;;;5066091;28;20020;-57
2021/04/05 01:08:29;;;;;;;3.55;1.50;;;11.30;65.60;;;;;;5065919;28;20082;-57
2021/04/05 01:10:56;;;;;;;3.17;1.40;;;11.20;65.60;;;;;;5066455;28;20025;-56
2021/04/05 01:13:23;;;;;;;3.47;1.40;;;11.20;66.00;;;;;;5063100;28;20407;-57
2021/04/05 01:15:48;;;;;;;3.60;1.60;;;11.30;65.80;;;;;;5045958;28;20029;-57
2021/04/05 01:18:16;;;;;;;6.53;2.20;;;11.20;66.10;;;;;;5045849;28;20132;-56
2021/04/05 01:20:44;;;;;;;4.07;1.90;;;11.10;66.20;;;;;;5045226;28;20044;-57
2021/04/05 01:23:11;;;;;;;4.97;2.22;;;11.10;66.10;;;;;;5047099;28;20052;-56
2021/04/05 01:25:38;;;;;;;4.63;2.15;;;11.00;66.20;;;;;;5046666;28;20024;-57
2021/04/05 01:28:06;;;;;;;4.20;2.00;;;11.00;66.40;;;;;;5046162;28;20286;-56
2021/04/05 01:30:37;;;;;;;5.18;1.92;;;10.80;66.50;;;;;;5045623;28;20025;-56
2021/04/05 01:33:19;;;;;;;3.50;1.85;;;10.80;67.00;;;;;;5045938;28;20025;-57
2021/04/05 01:35:47;;;;;;;2.50;1.50;;;10.70;70.60;;;;;;5045636;28;20031;-57
2021/04/05 01:38:17;;;;;;;3.22;1.30;;;10.60;72.70;;;;;;5045851;28;20079;-57
2021/04/05 01:40:46;;;;;;;2.28;1.48;;;10.60;73.30;;;;;;5045378;28;20056;-57
2021/04/05 01:43:12;;;;;;;3.10;1.30;;;10.40;74.80;;;;;;5046177;28;20028;-57
2021/04/05 01:45:39;;;;;;;1.58;1.08;;;10.30;74.60;;;;;;5045748;28;20025;-57
2021/04/05 01:48:06;;;;;;;2.38;1.50;;;10.20;74.80;;;;;;5046140;28;20519;-57
2021/04/05 01:50:32;;;;;;;8.00;3.00;;;10.20;73.80;;;;;;5045208;28;20021;-57
2021/04/05 01:53:03;;;;;;;10.18;2.90;;;10.30;72.90;;;;;;5050812;28;20038;-57
2021/04/05 01:55:31;;;;;;;12.95;4.07;;;10.30;70.80;;;;;;5065123;28;20070;-57
2021/04/05 01:57:57;;;;;;;9.85;4.00;;;10.30;70.80;;;;;;5065340;28;20039;-57
2021/04/05 02:00:26;;;;;;;9.27;3.53;;;10.40;70.90;;;;;;5064087;28;20418;-57
2021/04/05 02:02:57;;;;;;;6.57;3.15;;;10.50;70.20;;;;;;5065152;28;20182;-57
2021/04/05 02:05:28;;;;;;;5.85;2.45;;;10.50;71.70;;;;;;5065009;28;20032;-57
2021/04/05 02:07:54;;;;;;;3.80;1.90;;;10.30;74.70;;;;;;5065304;28;20024;-57
2021/04/05 02:10:26;;;;;;;3.08;1.83;;;10.20;75.60;;;;;;5065288;28;20391;-57
2021/04/05 02:12:54;;;;;;;3.35;1.40;;;10.20;76.20;;;;;;5065232;28;20048;-57
2021/04/05 02:15:23;;;;;;;5.45;1.85;;;10.10;75.60;;;;;;5065007;28;20031;-56
2021/04/05 02:17:49;;;;;;;5.78;2.03;;;10.20;74.30;;;;;;5064680;28;20027;-57
2021/04/05 02:20:16;;;;;;;3.72;1.60;;;10.10;76.00;;;;;;5065123;28;20423;-57
2021/04/05 02:22:44;;;;;;;3.13;1.42;;;10.10;75.80;;;;;;5064519;28;20099;-57
2021/04/05 02:25:16;;;;;;;3.83;1.52;;;10.20;76.10;;;;;;5064959;28;20107;-57
2021/04/05 02:27:46;;;;;;;2.20;1.35;;;10.10;75.70;;;;;;5064612;28;20051;-57
2021/04/05 02:30:22;;;;;;;3.13;1.30;;;10.10;75.50;;;;;;5058686;28;20040;-57
2021/04/05 02:32:59;;;;;;;2.92;1.92;;;10.10;74.80;;;;;;5043624;28;20032;-57
2021/04/05 02:35:26;;;;;;;3.15;1.40;;;10.00;74.60;;;;;;5044369;28;20029;-56
2021/04/05 02:37:53;;;;;;;2.47;1.40;;;9.80;75.90;;;;;;5044829;28;20078;-56
2021/04/05 02:40:20;;;;;;;3.58;1.90;;;9.60;78.10;;;;;;5044866;28;20032;-57
2021/04/05 02:42:47;;;;;;;1.58;1.27;;;9.60;78.30;;;;;;5044465;28;20021;-57
2021/04/05 02:45:16;;;;;;;2.75;1.42;;;9.70;75.60;;;;;;5057033;28;20028;-57
2021/04/05 02:47:43;;;;;;;2.50;1.20;;;9.60;77.80;;;;;;5063312;28;20031;-57
2021/04/05 02:50:09;;;;;;;4.10;1.70;;;9.40;83.80;;;;;;5065571;28;20028;-57
2021/04/05 02:52:37;;;;;;;1.88;1.17;;;9.30;85.80;;;;;;5064125;28;20462;-57
2021/04/05 02:55:10;;;;;;;2.78;1.20;;;9.30;84.90;;;;;;5062868;28;20025;-56
2021/04/05 02:57:41;;;;;;;5.43;1.77;;;9.40;84.00;;;;;;5064922;28;20056;-56
2021/04/05 03:00:13;;;;;;;4.28;1.70;;;9.50;81.70;;;;;;5064179;28;20510;-57
2021/04/05 03:02:39;;;;;;;3.45;1.67;;;9.60;83.10;;;;;;5063584;28;20024;-57
2021/04/05 03:05:07;;;;;;;5.70;1.73;;;9.40;86.30;;;;;;5064690;28;20529;-57
2021/04/05 03:07:35;;;;;;;3.70;1.30;;;9.20;86.10;;;;;;5063401;28;20040;-57
2021/04/05 03:10:01;;;;;;;1.75;1.20;;;9.10;83.00;;;;;;5063509;28;20040;-57
2021/04/05 03:12:29;;;;;;;2.08;1.40;;;9.20;82.40;;;;;;5054071;28;20343;-56
2021/04/05 03:14:56;;;;;;;3.03;1.48;;;9.10;83.60;;;;;;5043487;28;20064;-57
2021/04/05 03:17:23;;;;;;;2.20;1.40;;;9.00;84.70;;;;;;5044148;28;20120;-57
2021/04/05 03:19:50;;;;;;;2.70;1.30;;;8.80;85.90;;;;;;5044111;28;20021;-57
2021/04/05 03:22:18;;;;;;;2.05;1.20;;;8.80;86.50;;;;;;5044353;28;20403;-57
2021/04/05 03:24:45;;;;;;;2.30;1.52;;;8.80;83.60;;;;;;5044257;28;20032;-57
2021/04/05 03:27:10;;;;;;;3.10;1.63;;;9.00;82.60;;;;;;5044182;28;20026;-57
2021/04/05 03:29:38;;;;;;;4.05;1.90;;;9.10;81.00;;;;;;5044670;28;20035;-57
2021/04/05 03:32:05;;;;;;;7.53;1.58;;;9.20;81.30;;;;;;5044251;28;20043;-57
2021/04/05 03:34:34;;;;;;;4.07;1.52;;;9.30;79.70;;;;;;5043543;28;20082;-57
2021/04/05 03:37:13;;;;;;;2.40;1.67;;;9.30;80.00;;;;;;5044120;28;20037;-57
2021/04/05 03:39:39;;;;;;;2.75;1.63;;;9.30;79.20;;;;;;5043579;28;20025;-56
2021/04/05 03:42:12;;;;;;;2.05;1.10;;;9.20;80.30;;;;;;5044155;28;20104;-57
2021/04/05 03:44:55;;;;;;;3.20;1.50;;;9.00;84.20;;;;;;5056114;28;20552;-57
2021/04/05 03:47:38;;;;;;;3.53;1.60;;;8.80;86.20;;;;;;5059649;28;20047;-57
2021/04/05 03:50:07;;;;;;;4.28;1.63;;;8.90;86.80;;;;;;5048359;28;20569;-57
2021/04/05 03:52:45;;;;;;;2.83;1.45;;;8.90;85.30;;;;;;5048116;28;20025;-57
2021/04/05 03:55:12;;;;;;;1.85;1.30;;;8.80;85.70;;;;;;5048592;28;20021;-57
2021/04/05 03:57:44;;;;;;;6.28;1.67;;;8.90;84.90;;;;;;5048357;28;20047;-57
2021/04/05 04:00:12;;;;;;;4.35;1.40;;;9.00;83.70;;;;;;5048620;28;20021;-56
2021/04/05 04:02:42;;;;;;;2.53;1.23;;;8.90;86.30;;;;;;5048348;28;20132;-57
2021/04/05 04:05:18;;;;;;;3.13;1.42;;;8.80;88.50;;;;;;5047658;28;20036;-56
2021/04/05 04:08:00;;;;;;;2.22;1.20;;;8.70;91.10;;;;;;5042334;28;20045;-57
2021/04/05 04:10:29;;;;;;;3.78;1.30;;;8.70;91.70;;;;;;5046151;28;20038;-57
2021/04/05 04:12:57;;;;;;;4.53;1.35;;;8.50;94.60;;;;;;5046114;28;20029;-57
2021/04/05 04:15:24;;;;;;;3.15;1.50;;;8.50;95.00;;;;;;5059355;28;20117;-57
2021/04/05 04:17:51;;;;;;;2.10;1.35;;;8.30;95.10;;;;;;5067168;28;20506;-57
2021/04/05 04:20:18;;;;;;;2.38;1.33;;;8.20;95.40;;;;;;5067446;28;20016;-56
2021/04/05 04:22:46;;;;;;;2.13;1.48;;;8.40;94.70;;;;;;5066600;28;20111;-57
2021/04/05 04:25:12;;;;;;;2.22;1.20;;;8.30;95.10;;;;;;5063654;28;20149;-57
2021/04/05 04:27:42;;;;;;;6.40;1.40;;;8.50;92.80;;;;;;5047342;28;20040;-57
2021/04/05 04:30:08;;;;;;;3.72;1.50;;;8.80;90.00;;;;;;5047636;28;20380;-56
2021/04/05 04:32:33;;;;;;;1.88;1.25;;;8.90;91.00;;;;;;5046444;28;20025;-57
2021/04/05 04:35:00;;;;;;;1.95;1.40;;;9.20;89.40;;;;;;5047213;28;20175;-56
2021/04/05 04:37:25;;;;;;;2.70;1.23;;;9.30;88.30;;;;;;5047018;28;20431;-57
2021/04/05 04:39:51;;;;;;;2.60;1.40;;;9.40;82.80;;;;;;5046792;28;20017;-56
2021/04/05 04:42:17;;;;;;;1.70;1.30;;;9.40;82.20;;;;;;5050288;28;20115;-57
2021/04/05 04:44:42;;;;;;;2.58;1.52;;;9.40;82.70;;;;;;5065527;28;20529;-57
2021/04/05 04:47:08;;;;;;;3.03;1.58;;;9.20;85.50;;;;;;5067006;28;20115;-57
2021/04/05 04:49:35;;;;;;;3.50;1.40;;;8.90;92.80;;;;;;5066309;28;20314;-57
2021/04/05 04:52:01;;;;;;;3.25;1.48;;;8.60;94.30;;;;;;5065928;28;20032;-57
2021/04/05 04:54:27;;;;;;;3.13;1.60;;;8.90;92.80;;;;;;5066317;28;20039;-56
2021/04/05 04:56:54;;;;;;;2.53;1.30;;;9.00;84.80;;;;;;5066276;28;20052;-57
2021/04/05 04:59:22;;;;;;;1.63;1.35;;;9.10;84.20;;;;;;5066232;28;20519;-57
2021/04/05 05:01:49;;;;;;;3.33;1.55;;;8.90;89.20;;;;;;5065178;28;20040;-57
2021/04/05 05:04:26;;;;;;;4.03;1.70;;;9.00;89.60;;;;;;5057332;28;20063;-57
2021/04/05 05:06:57;;;;;;;4.55;2.10;;;8.90;90.40;;;;;;5046338;28;20419;-57
2021/04/05 05:09:24;;;;;;;3.03;2.20;;;8.80;89.30;;;;;;5045630;28;20044;-57
2021/04/05 05:11:50;;;;;;;4.57;2.47;;;8.70;89.90;;;;;;5044745;28;20033;-57
2021/04/05 05:14:17;;;;;;;5.00;2.38;;;8.60;90.50;;;;;;5046277;28;20055;-57
2021/04/05 05:16:44;;;;;;;2.47;1.90;;;8.50;91.80;;;;;;5046187;28;20025;-57
2021/04/05 05:19:13;;;;;;;3.47;1.83;;;8.50;91.60;;;;;;5045958;28;20103;-57
2021/04/05 05:21:49;;;;;;;2.35;1.80;;;8.70;90.60;;;;;;5044765;28;20083;-57
2021/04/05 05:24:20;;;;;;;4.57;2.10;;;8.70;90.50;;;;;;5046236;28;20044;-56
2021/04/05 05:26:48;;;;;;;5.05;2.13;;;8.60;90.60;;;;;;5044567;28;20033;-57
2021/04/05 05:29:17;;;;;;;4.90;1.80;;;8.60;90.80;;;;;;5046395;28;20109;-56
2021/04/05 05:31:43;;;;;;;3.45;1.98;;;8.50;91.00;;;;;;5045684;28;20513;-57
2021/04/05 05:34:13;;;;;;;2.85;1.58;;;8.50;90.40;;;;;;5046071;28;20036;-57
2021/04/05 05:36:41;;;;;;;3.88;2.20;;;8.50;90.30;;;;;;5046505;28;20064;-56
2021/04/05 05:39:07;;;;;;;4.13;2.05;;;8.50;90.20;;;;;;5046168;28;20407;-57
2021/04/05 05:42:13;;;;;;;4.95;2.28;;;8.30;92.60;;;;;;5045266;28;20093;-57
2021/04/05 05:45:03;;;;;;;3.30;1.65;;;8.20;95.10;;;;;;5045857;28;20032;-57
2021/04/05 05:47:53;;;;;;;4.63;2.10;;;8.30;94.80;;;;;;5045491;28;20091;-57
2021/04/05 05:50:31;;;;;;;3.10;1.55;;;8.20;94.80;;;;;;5045610;28;20082;-57
2021/04/05 05:53:19;;;;;;;3.75;1.95;;;8.10;96.10;;;;;;5045401;28;20040;-56
2021/04/05 05:56:22;;;;;;;6.03;4.90;;;8.00;96.40;;;;;;5045401;28;20021;-57
2021/04/05 05:58:54;;;;;;;3.88;2.45;;;7.90;97.10;;;;;;5045037;28;20495;-56
2021/04/05 06:01:35;;;;;;;4.63;2.33;;;8.00;97.10;;;;;;5043812;28;20573;-56
2021/04/05 06:04:33;;;;;;;3.10;2.33;;;8.00;97.10;;;;;;5045406;28;20029;-57
2021/04/05 06:07:17;;;;;;;3.63;2.20;;;8.00;97.70;;;;;;5044536;28;20108;-57
2021/04/05 06:10:13;;;;;;;4.60;2.67;;;8.20;97.00;;;;;;5044558;28;20039;-57
2021/04/05 06:13:07;;;;;;;5.93;2.50;;;8.20;96.80;;;;;;5045058;28;20024;-57
2021/04/05 06:15:47;;;;;;;5.00;2.85;;;8.20;97.00;;;;;;5044866;28;20032;-57
2021/04/05 06:18:37;;;;;;;4.40;2.20;;;8.10;97.10;;;;;;5045309;28;20096;-57
2021/04/05 06:21:06;;;;;;;8.57;3.05;;;8.30;96.30;;;;;;5045072;28;20095;-57
2021/04/05 06:23:46;;;;;;;10.43;3.85;;;8.40;95.30;;;;;;5044817;28;20284;-57
2021/04/05 06:26:40;;;;;;;28.08;8.25;;;8.40;95.30;;;;;;5044879;28;20083;-57
2021/04/05 06:29:37;;;;;;;30.60;8.90;;;8.60;94.40;;;;;;5045832;28;20029;-56
2021/04/05 06:32:18;;;;;;;26.10;7.72;;;8.70;94.50;;;;;;5045259;28;20308;-56
2021/04/05 06:35:03;;;;;;;24.38;7.05;;;8.80;94.20;;;;;;5044807;28;20025;-56
2021/04/05 06:37:38;;;;;;;18.48;5.57;;;8.80;94.30;;;;;;5045617;28;20456;-56
2021/04/05 06:40:12;;;;;;;18.42;7.05;;;8.70;94.50;;;;;;5046325;28;20032;-56
2021/04/05 06:42:56;;;;;;;;;;;8.80;94.50;;;;;;5046524;28;20021;-56
2021/04/05 06:45:59;;;;;;;22.75;7.80;;;8.80;94.00;;;;;;5054117;28;19995;-56
2021/04/05 06:48:43;;;;;;;17.00;6.35;;;8.90;94.00;;;;;;5065755;28;20036;-56
2021/04/05 06:51:23;;;;;;;19.55;7.28;;;9.00;94.50;;;;;;5063431;28;20498;-56
2021/04/05 06:54:14;;;;;;;17.40;7.55;;;9.10;94.40;;;;;;5057346;28;20527;-56
2021/04/05 06:57:01;;;;;;;13.27;6.57;;;9.20;94.50;;;;;;5045178;28;20025;-56
2021/04/05 06:59:33;;;;;;;17.40;7.85;;;9.30;94.20;;;;;;5062714;28;20160;-56
2021/04/05 07:02:27;;;;;;;13.25;6.50;;;9.30;93.80;;;;;;5047147;28;20051;-56
2021/04/05 07:05:23;;;;;;;9.27;5.22;;;8.70;93.10;;;;;;5047770;28;20106;-57
2021/04/05 07:08:09;;;;;;;6.45;4.25;;;9.00;92.80;;;;;;5045805;28;20072;-56
2021/04/05 07:10:45;;;;;;;7.57;4.00;;;9.20;92.60;;;;;;5056219;28;20037;-57
2021/04/05 07:13:47;;;;;;;7.80;3.95;;;9.40;91.70;;;;;;5065895;28;20031;-56
2021/04/05 07:16:43;;;;;;;6.65;3.20;;;9.70;91.80;;;;;;5065210;28;20167;-56
2021/04/05 07:19:26;;;;;;;2.85;1.90;;;9.50;90.60;;;;;;5066228;28;20009;-56
2021/04/05 07:22:20;;;;;;;3.00;1.92;;;9.70;89.10;;;;;;5082036;28;20070;-56
2021/04/05 07:24:55;;;;;;;5.10;2.40;;;10.00;90.00;;;;;;5049777;28;20036;-56
2021/04/05 07:27:53;;;;;;;2.95;1.75;;;10.10;88.20;;;;;;5071881;28;20063;-56
2021/04/05 07:30:32;;;;;;;2.72;1.70;;;10.10;88.20;;;;;;5090107;28;20039;-57
2021/04/05 07:33:05;;;;;;;3.60;1.52;;;10.20;89.60;;;;;;5060495;28;20037;-56
2021/04/05 07:35:50;;;;;;;2.80;1.73;;;10.40;87.40;;;;;;5049689;28;20031;-56
2021/04/05 07:38:18;;;;;;;2.45;1.33;;;10.30;90.00;;;;;;5049506;28;20025;-56
2021/04/05 07:41:02;;;;;;;3.83;1.63;;;10.40;90.60;;;;;;5083473;28;20032;-56
2021/04/05 07:43:40;;;;;;;2.87;1.80;;;10.30;90.40;;;;;;5085474;28;20024;-56
2021/04/05 07:46:17;;;;;;;3.55;2.10;;;10.40;90.50;;;;;;5052863;28;20274;-56
2021/04/05 07:49:11;;;;;;;2.75;1.48;;;10.50;90.30;;;;;;5051551;28;20032;-56
2021/04/05 07:51:56;;;;;;;4.53;2.00;;;10.50;90.30;;;;;;5048187;28;20098;-56
2021/04/05 07:54:26;;;;;;;2.92;1.67;;;10.50;89.90;;;;;;5055266;28;20083;-56
2021/04/05 07:57:30;;;;;;;3.05;1.80;;;10.50;89.80;;;;;;5059081;28;20050;-57
2021/04/05 07:59:56;;;;;;;3.10;1.63;;;10.50;89.50;;;;;;5052814;28;20041;-57
2021/04/05 08:02:25;;;;;;;3.65;1.80;;;10.60;88.80;;;;;;5061074;28;20279;-56
2021/04/05 08:05:14;;;;;;;2.78;1.60;;;10.70;88.70;;;;;;5059985;28;20421;-56
2021/04/05 08:08:17;;;;;;;4.45;1.92;;;10.70;87.80;;;;;;5065642;28;20032;-56
2021/04/05 08:11:07;;;;;;;3.28;1.90;;;10.80;87.40;;;;;;5067004;28;20040;-56
2021/04/05 08:13:48;;;;;;;3.22;1.77;;;10.80;87.00;;;;;;5067606;28;20021;-56
2021/04/05 08:16:24;;;;;;;4.32;2.28;;;10.90;86.00;;;;;;5056694;28;20081;-56
2021/04/05 08:19:09;;;;;;;5.45;2.05;;;11.00;85.80;;;;;;5060396;28;20436;-56
2021/04/05 08:21:49;;;;;;;6.13;1.88;;;11.00;85.20;;;;;;5067445;28;20024;-56
2021/04/05 08:24:26;;;;;;;3.60;1.77;;;11.10;85.20;;;;;;5066278;28;20529;-56
2021/04/05 08:27:09;;;;;;;3.83;1.90;;;11.20;84.40;;;;;;5067567;28;20035;-57
2021/04/05 08:30:04;;;;;;;4.40;1.98;;;11.30;84.70;;;;;;5048092;28;20033;-56
2021/04/05 08:32:47;;;;;;;4.28;1.65;;;11.30;84.80;;;;;;5052280;28;20067;-56
2021/04/05 08:35:25;;;;;;;2.95;1.55;;;11.40;84.20;;;;;;5047226;28;20554;-57
2021/04/05 08:38:00;;;;;;;4.75;1.90;;;11.20;83.80;;;;;;5051140;28;20025;-56
2021/04/05 08:40:48;;;;;;;3.17;1.77;;;11.30;82.90;;;;;;5054286;28;20040;-57
2021/04/05 08:43:51;;;;;;;4.53;2.05;;;11.50;84.50;;;;;;5052228;28;20029;-57
2021/04/05 08:46:21;;;;;;;3.30;1.90;;;11.60;81.00;;;;;;5047116;28;20102;-56
2021/04/05 08:48:52;;;;;;;4.47;1.85;;;11.70;80.00;;;;;;5046949;28;20028;-57
2021/04/05 08:51:40;;;;;;;2.67;1.60;;;11.70;79.80;;;;;;5048314;28;20453;-56
2021/04/05 08:54:07;;;;;;;3.47;1.65;;;11.80;79.90;;;;;;5051863;28;20713;-56
2021/04/05 08:56:42;;;;;;;4.65;2.30;;;11.80;79.60;;;;;;5048831;28;20424;-56
2021/04/05 08:59:13;;;;;;;4.07;2.10;;;11.80;78.20;;;;;;5052055;28;20465;-56
2021/04/05 09:01:56;;;;;;;5.53;2.00;;;11.80;78.50;;;;;;5050263;28;20045;-56
2021/04/05 09:04:24;;;;;;;5.97;2.33;;;11.80;79.00;;;;;;5050406;28;20029;-57
2021/04/05 09:07:26;;;;;;;3.22;1.63;;;11.90;79.00;;;;;;5055694;28;20028;-56
2021/04/05 09:09:56;;;;;;;5.45;1.92;;;12.00;78.30;;;;;;5059417;28;20029;-57
2021/04/05 09:12:26;;;;;;;3.78;2.00;;;12.00;77.90;;;;;;5052269;28;20090;-57
2021/04/05 09:15:13;;;;;;;5.57;2.15;;;12.00;77.80;;;;;;5058811;28;20020;-57
2021/04/05 09:18:00;;;;;;;5.85;1.73;;;12.00;78.50;;;;;;5052490;28;20050;-57
2021/04/05 09:20:44;;;;;;;4.00;1.80;;;12.10;77.60;;;;;;5052424;28;20037;-57
2021/04/05 09:23:18;;;;;;;3.10;1.55;;;12.20;79.60;;;;;;5053322;28;20028;-57
2021/04/05 09:25:47;;;;;;;2.30;1.30;;;12.30;78.20;;;;;;5056976;28;20067;-57
2021/04/05 09:28:37;;;;;;;2.67;1.30;;;12.40;78.00;;;;;;5056304;28;20037;-57
2021/04/05 09:31:15;;;;;;;3.97;1.90;;;12.30;78.20;;;;;;5052893;28;20489;-57
2021/04/05 09:34:07;;;;;;;3.17;1.98;;;12.30;78.20;;;;;;5054383;28;20494;-57
2021/04/05 09:37:24;;;;;;;3.20;1.63;;;12.20;77.90;;;;;;5050592;28;20025;-57
2021/04/05 09:40:17;;;;;;;3.08;1.60;;;12.30;78.00;;;;;;5043406;28;20522;-56
2021/04/05 09:43:20;;;;;;;2.28;1.40;;;12.30;78.20;;;;;;5046589;28;20024;-57
2021/04/05 09:46:17;;;;;;;1.42;1.08;;;12.50;78.80;;;;;;5059962;28;20044;-57
2021/04/05 09:49:02;;;;;;;2.70;1.35;;;12.40;77.90;;;;;;5049940;28;20426;-56
2021/04/05 09:51:45;;;;;;;4.28;1.90;;;12.40;78.10;;;;;;5047776;28;20132;-53
2021/04/05 09:54:26;;;;;;;2.03;1.27;;;12.70;81.50;;;;;;5045817;28;20033;-57
2021/04/05 09:57:01;;;;;;;2.38;0.90;;;12.90;80.50;;;;;;5050440;28;20021;-57
2021/04/05 09:59:52;;;;;;;1.52;0.93;;;13.00;77.10;;;;;;5056813;28;20089;-57
2021/04/05 10:02:31;;;;;;;1.55;1.17;;;13.00;76.70;;;;;;5046045;28;20111;-56
2021/04/05 10:04:58;;;;;;;2.20;1.05;;;13.00;77.50;;;;;;5046310;28;20021;-57
2021/04/05 10:07:25;;;;;;;1.27;1.00;;;13.00;77.10;;;;;;5046060;28;20770;-58
2021/04/05 10:09:53;;;;;;;3.05;2.10;;;13.10;77.30;;;;;;5051224;28;20036;-58
2021/04/05 10:12:23;;;;;;;5.47;2.58;;;13.00;77.30;;;;;;5066300;28;20482;-58
2021/04/05 10:14:50;;;;;;;1.92;1.50;;;13.00;76.60;;;;;;5064946;28;20070;-57
2021/04/05 10:17:21;;;;;;;2.85;1.55;;;13.10;75.10;;;;;;5066468;28;20029;-58
2021/04/05 10:19:53;;;;;;;3.42;1.70;;;13.10;76.80;;;;;;5065552;28;20017;-58
2021/04/05 10:22:20;;;;;;;4.25;1.60;;;13.30;74.90;;;;;;5046186;28;20032;-59
2021/04/05 10:24:51;;;;;;;3.50;1.42;;;13.40;75.90;;;;;;5049907;28;20831;-59
2021/04/05 10:27:19;;;;;;;2.38;1.67;;;13.30;75.20;;;;;;5056148;28;20038;-57
2021/04/05 10:29:53;;;;;;;4.22;1.73;;;13.40;74.80;;;;;;5064053;28;20135;-57
2021/04/05 10:32:22;;;;;;;3.37;1.63;;;13.40;73.90;;;;;;5064389;28;20032;-57
2021/04/05 10:34:54;;;;;;;2.08;1.40;;;13.70;77.10;;;;;;5064128;28;20043;-57
2021/04/05 10:37:30;;;;;;;1.88;1.13;;;13.90;74.60;;;;;;5064295;28;20024;-57
2021/04/05 10:39:56;;;;;;;1.80;1.10;;;14.10;74.50;;;;;;5046893;28;20035;-57
2021/04/05 10:42:27;;;;;;;3.10;1.45;;;14.00;72.70;;;;;;5063673;28;20024;-58
2021/04/05 10:45:04;;;;;;;1.40;0.95;;;13.90;74.80;;;;;;5059505;28;20025;-57
2021/04/05 10:47:39;;;;;;;2.50;1.60;;;14.30;73.80;;;;;;5084335;28;20032;-58
2021/04/05 10:50:07;;;;;;;3.08;1.58;;;14.10;72.90;;;;;;5069779;28;20107;-58
2021/04/05 10:52:41;;;;;;;2.35;1.38;;;14.20;71.70;;;;;;5064090;28;20036;-58
2021/04/05 10:55:20;;;;;;;4.85;2.20;;;14.30;71.30;;;;;;5053934;28;20025;-58
2021/04/05 10:57:56;;;;;;;4.88;2.22;;;14.20;72.20;;;;;;5047056;28;20194;-58
2021/04/05 11:00:26;;;;;;;2.75;1.40;;;14.40;72.90;;;;;;5059482;28;20554;-58
2021/04/05 11:03:00;;;;;;;2.40;1.65;;;14.40;70.70;;;;;;5064063;28;20394;-59
2021/04/05 11:05:30;;;;;;;3.03;1.67;;;14.50;71.40;;;;;;5063617;28;20032;-58
2021/04/05 11:07:59;;;;;;;4.75;2.05;;;14.60;71.00;;;;;;5062414;28;20789;-58
2021/04/05 11:10:29;;;;;;;4.43;1.95;;;14.60;70.00;;;;;;5047633;28;20085;-58
2021/04/05 11:12:57;;;;;;;3.83;2.03;;;14.50;69.30;;;;;;5043661;28;20466;-58
2021/04/05 11:15:27;;;;;;;3.20;2.13;;;14.60;70.30;;;;;;5054450;28;20032;-58
2021/04/05 11:17:56;;;;;;;4.82;1.60;;;14.60;70.60;;;;;;5058133;28;20029;-58
2021/04/05 11:20:29;;;;;;;3.90;1.50;;;14.80;71.70;;;;;;5049755;28;20110;-58
2021/04/05 11:22:58;;;;;;;3.78;1.58;;;15.00;70.40;;;;;;5056859;28;20837;-57
2021/04/05 11:25:30;;;;;;;2.95;1.80;;;15.10;70.10;;;;;;5049569;28;20029;-57
2021/04/05 11:28:07;;;;;;;3.45;1.92;;;15.00;69.90;;;;;;5058424;28;20320;-58
2021/04/05 11:30:34;;;;;;;3.42;2.00;;;15.30;69.80;;;;;;5053666;28;20418;-58
2021/04/05 11:33:01;;;;;;;4.60;1.95;;;15.20;70.10;;;;;;5049914;28;20106;-57
2021/04/05 11:35:34;;;;;;;2.58;1.52;;;15.30;69.80;;;;;;5043501;28;20099;-56
2021/04/05 11:38:07;;;;;;;4.22;2.65;;;15.50;70.20;;;;;;5044079;28;20029;-58
2021/04/05 11:40:35;;;;;;;3.22;1.75;;;15.60;68.40;;;;;;5044468;28;20033;-58
2021/04/05 11:43:02;;;;;;;3.55;2.05;;;15.60;68.20;;;;;;5047306;28;20090;-59
2021/04/05 11:45:41;;;;;;;2.97;1.77;;;15.70;68.20;;;;;;5062058;28;20422;-57
2021/04/05 11:48:15;;;;;;;3.42;1.80;;;16.00;67.50;;;;;;5053601;28;20067;-57
2021/04/05 11:50:44;;;;;;;3.97;1.65;;;16.10;68.80;;;;;;5052977;28;20024;-58
2021/04/05 11:53:26;;;;;;;2.83;1.20;;;16.40;67.10;;;;;;5045590;28;20119;-59
2021/04/05 11:56:21;;;;;;;3.33;1.38;;;16.80;67.70;;;;;;5049166;28;20082;-59
2021/04/05 11:59:02;;;;;;;3.33;1.60;;;16.80;66.50;;;;;;5051244;28;20411;-58
2021/04/05 12:01:37;;;;;;;4.75;1.90;;;16.70;64.20;;;;;;5054027;28;20021;-58
2021/04/05 12:04:34;;;;;;;1.95;1.15;;;16.90;63.60;;;;;;5066036;28;20099;-59
2021/04/05 12:07:13;;;;;;;3.67;1.98;;;17.10;62.60;;;;;;5048079;28;20414;-58
2021/04/05 12:09:44;;;;;;;3.95;1.80;;;16.80;63.30;;;;;;5050880;28;20033;-58
2021/04/05 12:12:19;;;;;;;2.88;1.65;;;16.70;62.80;;;;;;5055081;28;20021;-58
2021/04/05 12:14:52;;;;;;;2.25;1.55;;;16.70;64.40;;;;;;5054815;28;20522;-58
2021/04/05 12:17:22;;;;;;;4.00;1.50;;;17.10;66.20;;;;;;5059399;28;20042;-59
2021/04/05 12:19:52;;;;;;;4.80;2.10;;;17.30;64.70;;;;;;5066705;28;20017;-59
2021/04/05 12:22:39;;;;;;;1.73;1.35;;;16.90;62.90;;;;;;5063110;28;20774;-59
2021/04/05 12:25:06;;;;;;;3.88;1.83;;;17.00;62.80;;;;;;5067631;28;20052;-59
2021/04/05 12:27:35;;;;;;;2.30;1.58;;;17.00;63.00;;;;;;5056450;28;20091;-59
2021/04/05 12:30:24;;;;;;;2.33;1.20;;;17.10;63.20;;;;;;5051878;28;20025;-58
2021/04/05 12:32:53;;;;;;;2.63;1.50;;;17.30;62.70;;;;;;5046642;28;20112;-58
2021/04/05 12:35:22;;;;;;;2.72;1.67;;;17.50;62.70;;;;;;5046941;28;20111;-58
2021/04/05 12:37:58;;;;;;;2.53;1.40;;;17.20;63.00;;;;;;5046887;28;20044;-59
2021/04/05 12:40:27;;;;;;;2.35;1.50;;;17.60;63.10;;;;;;5062470;28;20043;-59
2021/04/05 12:43:00;;;;;;;3.15;1.23;;;17.60;62.50;;;;;;5054121;28;20491;-59
2021/04/05 12:45:29;;;;;;;2.28;1.60;;;17.70;62.00;;;;;;5057370;28;20036;-59
2021/04/05 12:47:55;;;;;;;3.15;1.40;;;17.60;62.00;;;;;;5054385;28;20768;-59
2021/04/05 12:50:25;;;;;;;3.58;1.55;;;17.90;63.70;;;;;;5049250;28;20044;-58
2021/04/05 12:52:57;;;;;;;3.10;1.60;;;18.20;60.20;;;;;;5063797;28;20032;-59
2021/04/05 12:55:27;;;;;;;3.10;1.80;;;18.10;62.90;;;;;;5057516;28;20032;-59
2021/04/05 12:57:57;;;;;;;5.00;1.60;;;18.40;60.90;;;;;;5066588;28;20458;-58
2021/04/05 13:00:25;;;;;;;3.03;1.60;;;18.10;61.60;;;;;;5048259;28;20029;-59
2021/04/05 13:03:22;;;;;;;2.95;1.70;;;18.20;61.20;;;;;;5046511;28;20036;-59
2021/04/05 13:06:11;;;;;;;4.43;1.90;;;18.20;61.20;;;;;;5046186;28;20058;-59
2021/04/05 13:08:51;;;;;;;8.15;2.50;;;17.70;61.30;;;;;;5047137;28;20485;-59
2021/04/05 13:11:21;;;;;;;4.32;1.92;;;17.80;61.90;;;;;;5056175;28;20074;-59
2021/04/05 13:13:50;;;;;;;4.13;2.33;;;18.00;61.80;;;;;;5046084;28;20522;-59
2021/04/05 13:16:22;;;;;;;2.15;1.50;;;18.00;61.60;;;;;;5045908;28;20410;-59
2021/04/05 13:18:52;;;;;;;1.85;1.45;;;18.00;62.10;;;;;;5046673;28;20429;-59
2021/04/05 13:21:19;;;;;;;1.92;1.40;;;17.90;61.90;;;;;;5057110;28;20032;-60
2021/04/05 13:23:51;;;;;;;2.53;1.40;;;18.10;62.30;;;;;;5065969;28;20040;-59
2021/04/05 13:26:24;;;;;;;3.35;1.65;;;18.30;61.70;;;;;;5066040;28;20059;-60
2021/04/05 13:28:52;;;;;;;4.25;1.73;;;18.30;61.00;;;;;;5065641;28;20028;-59